Capitol Logistics 979

Operating for DHL



LFMN
Nice-Côte d'Azur Airport
Nice, FR
LFPG
Charles de Gaulle
Paris, FR

Activity Log

Date Flight Route Aircraft Duration
02/15/2022 CPX979 OKTE6A OKTET UM733 GIPNO UT26 LOGNI MOKIP ARFOZ UN854 TINIL TINI9W A30F 1h 28m

Route Details

Aircraft Information
Group: European Fleet
Types: A30F,A31F,B738
Route Data
Demand: V
Distance: 375nm
Duration: 1h 39m
Recm'd Route: OKTE6X OKTET UM733 GIPNO UT26 LOGNI MOKIP ARFOZ UN854 TINIL TINI9W
Origin Wx: LFMN 272100Z 34004KT 330V040 CAVOK 26/12 Q1012 NOSIG
Dest. Wx: LFPG 272100Z 34005KT CAVOK 14/07 Q1025 NOSIG
Notes:

Financial History
Total Freight: 87,231lbs
Average Load: 87,231lbs/flt
Fuel Used: 17,836lbs
Avg. Fuel Used: 17,836lbs/flt
Fuel Expense: $14,697
Avg. Fuel Expense: $14,697
Avg. Fuel Cost: $0.82/lbs
Total Gross Income: $178,038
Pilot Pay: $259
Total Expenses: $28,436
Total Revenue: $134,575
Average Revenue: $178,038.47